»·PEaware :: N900HE KLAX-KSNA

N900HE :: KLAX-KSNA

FLIGHT INFORMATION

Flight Status: Arrived
Operator: Privately registered:
United States
More flights under this callsign
Pilot: Heigo T. (17565)
Aircraft: SOCATA TBM-900
(TBM9)
More flights by this aircraft type
Origin: KLAX Los Angeles Intl
United States
Destination: KSNA John Wayne-Orange Co
United States
More flights between these airports :: More routes between these airports
Route: SLI8 SLI
File this flight plan on PilotEdge
Remarks: I6
Altitude:
(Current/Filed)
5,000ft
Speed:
(Current/Filed)
220kts
Departed: 14-Jan-20 02:15 PM
Arrived: 14-Jan-20 02:44 PM
Distance/Time
Traveled:
31nm/0:28
Distance/Time
To Go:
Arrived

Flight Plot

Page will automatically refresh every two minutes.


Map Options




Map Legend


Flown Route
Filed Route
Departure Airport
Arrival Airport
Navaid (VOR, NDB)
Fix

Horizontal Profiles

Position Reports

Time Latitude Longitude Heading Altitude Ground
Speed
14-Jan-20 13:40 33.932835 -118.399185 85 108ft 0kts
14-Jan-20 13:41 33.932835 -118.399185 85 108ft 0kts
14-Jan-20 13:42 33.932835 -118.399185 85 108ft 0kts
14-Jan-20 13:43 33.932835 -118.399185 85 108ft 0kts
14-Jan-20 13:44 33.932835 -118.399185 85 108ft 0kts
14-Jan-20 13:45 33.932835 -118.399185 85 108ft 0kts
14-Jan-20 13:46 33.932835 -118.399185 85 108ft 0kts
14-Jan-20 13:47 33.932835 -118.399185 85 108ft 0kts
14-Jan-20 13:48 33.932835 -118.399185 85 108ft 0kts
14-Jan-20 13:49 33.932835 -118.399185 85 108ft 0kts
14-Jan-20 13:50 33.932835 -118.399185 85 108ft 0kts
14-Jan-20 13:51 33.932835 -118.399185 85 108ft 0kts
14-Jan-20 13:52 33.932835 -118.399185 85 108ft 0kts
14-Jan-20 13:53 33.932835 -118.399185 85 108ft 0kts
14-Jan-20 13:54 33.932835 -118.399178 86 108ft 0kts
14-Jan-20 13:55 33.932835 -118.399178 86 108ft 0kts
14-Jan-20 13:56 33.932835 -118.399178 86 108ft 0kts
14-Jan-20 13:57 33.932835 -118.399178 86 108ft 0kts
14-Jan-20 13:58 33.932835 -118.399178 86 108ft 0kts
14-Jan-20 13:59 33.932835 -118.399178 86 108ft 0kts
14-Jan-20 14:00 33.932835 -118.399178 86 108ft 0kts
14-Jan-20 14:01 33.932835 -118.399178 86 108ft 0kts
14-Jan-20 14:02 33.932835 -118.399178 86 108ft 0kts
14-Jan-20 14:03 33.932835 -118.399178 86 108ft 0kts
14-Jan-20 14:04 33.933293 -118.398921 9 108ft 5kts
14-Jan-20 14:05 33.934420 -118.398113 19 108ft 4kts
14-Jan-20 14:06 33.934870 -118.394925 82 108ft 16kts
14-Jan-20 14:07 33.935393 -118.389845 83 108ft 13kts
14-Jan-20 14:08 33.935781 -118.386075 83 108ft 9kts
14-Jan-20 14:09 33.936069 -118.383283 83 108ft 7kts
14-Jan-20 14:10 33.936424 -118.382772 354 108ft 0kts
14-Jan-20 14:11 33.936424 -118.382772 354 108ft 0kts
14-Jan-20 14:12 33.936424 -118.382772 354 108ft 0kts
14-Jan-20 14:14 33.937231 -118.383131 296 108ft 15kts
14-Jan-20 14:15 33.934325 -118.410216 263 814ft 135kts
14-Jan-20 14:16 33.927620 -118.456062 244 2980ft 167kts
14-Jan-20 14:17 33.885166 -118.492233 210 3607ft 190kts
14-Jan-20 14:18 33.838502 -118.490149 171 4675ft 172kts
14-Jan-20 14:19 33.794205 -118.469472 122 4956ft 195kts
14-Jan-20 14:20 33.767572 -118.416770 122 4920ft 167kts
14-Jan-20 14:21 33.745114 -118.370131 88 4901ft 164kts
14-Jan-20 14:22 33.750665 -118.317277 80 3985ft 153kts
14-Jan-20 14:23 33.757406 -118.263459 80 3981ft 171kts
14-Jan-20 14:24 33.764677 -118.205110 79 3977ft 182kts
14-Jan-20 14:25 33.772391 -118.143084 80 3975ft 189kts
14-Jan-20 14:26 33.780218 -118.079794 80 3976ft 194kts
14-Jan-20 14:27 33.797778 -118.018781 63 3974ft 194kts
14-Jan-20 14:28 33.820858 -117.961458 63 3973ft 189kts
14-Jan-20 14:29 33.843991 -117.903909 63 3974ft 190kts
14-Jan-20 14:30 33.865789 -117.849555 63 3964ft 167kts
14-Jan-20 14:31 33.885539 -117.800236 63 3971ft 159kts
14-Jan-20 14:32 33.904616 -117.752533 63 3973ft 155kts
14-Jan-20 14:33 33.925224 -117.707314 30 3971ft 154kts
14-Jan-20 14:34 33.962664 -117.682275 26 3969ft 153kts
14-Jan-20 14:34 33.982046 -117.704561 241 3697ft 164kts
14-Jan-20 14:36 33.932483 -117.719142 164 3464ft 159kts
14-Jan-20 14:37 33.892863 -117.731485 210 3472ft 153kts
14-Jan-20 14:37 33.861289 -117.751271 207 3469ft 155kts
14-Jan-20 14:39 33.814771 -117.780681 207 3011ft 180kts
14-Jan-20 14:39 33.776911 -117.804679 207 2174ft 186kts
14-Jan-20 14:40 33.736817 -117.830084 208 1284ft 129kts
14-Jan-20 14:42 33.706061 -117.849586 209 665ft 89kts
14-Jan-20 14:42 33.688373 -117.860693 209 218ft 84kts
14-Jan-20 14:43 33.675042 -117.868704 164 59ft 14kts
14-Jan-20 14:44 33.673600 -117.867011 147 59ft 10kts
14-Jan-20 14:45 33.671361 -117.868676 215 59ft 7kts
14-Jan-20 14:46 33.669421 -117.870634 220 59ft 8kts
14-Jan-20 14:47 33.667864 -117.872226 220 59ft 6kts
14-Jan-20 14:48 33.666290 -117.872947 185 59ft 6kts
14-Jan-20 14:49 33.665891 -117.873098 220 59ft 0kts
14-Jan-20 14:50 33.665891 -117.873098 220 59ft 0kts
14-Jan-20 14:51 33.665891 -117.873098 220 59ft 0kts
14-Jan-20 14:52 33.665891 -117.873098 220 59ft 0kts
14-Jan-20 14:53 33.665891 -117.873098 220 59ft 0kts
14-Jan-20 14:54 33.665891 -117.873098 220 59ft 0kts

Navigation Log

Ident Type
Flight plan parsing failed, navigation log unavailable